sensor_id;sensor_type;location;lat;lon;timestamp;pressure;altitude;pressure_sealevel;temperature;humidity
49611;BME280;35515;48.766;9.176;2023-09-18T00:02:08;97736.88;;;21.18;82.72
49611;BME280;35515;48.766;9.176;2023-09-18T00:04:35;97733.06;;;21.14;83.07
49611;BME280;35515;48.766;9.176;2023-09-18T00:07:01;97724.94;;;21.03;82.81
49611;BME280;35515;48.766;9.176;2023-09-18T00:09:29;97731.41;;;20.88;83.31
49611;BME280;35515;48.766;9.176;2023-09-18T00:11:56;97719.19;;;21.00;80.83
49611;BME280;35515;48.766;9.176;2023-09-18T00:14:22;97719.44;;;21.03;81.21
49611;BME280;35515;48.766;9.176;2023-09-18T00:16:49;97718.28;;;21.04;80.62
49611;BME280;35515;48.766;9.176;2023-09-18T00:19:17;97721.34;;;21.03;81.08
49611;BME280;35515;48.766;9.176;2023-09-18T00:21:43;97712.63;;;20.96;83.63
49611;BME280;35515;48.766;9.176;2023-09-18T00:24:10;97715.31;;;21.01;84.73
49611;BME280;35515;48.766;9.176;2023-09-18T00:26:38;97712.78;;;21.04;82.18
49611;BME280;35515;48.766;9.176;2023-09-18T00:29:04;97701.00;;;20.99;80.82
49611;BME280;35515;48.766;9.176;2023-09-18T00:31:31;97708.31;;;20.84;83.84
49611;BME280;35515;48.766;9.176;2023-09-18T00:33:57;97705.69;;;20.74;82.41
49611;BME280;35515;48.766;9.176;2023-09-18T00:36:24;97694.41;;;20.76;83.47
49611;BME280;35515;48.766;9.176;2023-09-18T00:38:50;97696.56;;;20.79;84.57
49611;BME280;35515;48.766;9.176;2023-09-18T00:41:17;97691.25;;;20.87;82.70
49611;BME280;35515;48.766;9.176;2023-09-18T00:43:45;97694.41;;;21.00;81.68
49611;BME280;35515;48.766;9.176;2023-09-18T00:46:11;97690.19;;;21.08;81.73
49611;BME280;35515;48.766;9.176;2023-09-18T00:48:39;97687.69;;;21.11;80.75
49611;BME280;35515;48.766;9.176;2023-09-18T00:51:06;97690.13;;;21.13;80.89
49611;BME280;35515;48.766;9.176;2023-09-18T00:53:37;97688.91;;;21.00;82.22
49611;BME280;35515;48.766;9.176;2023-09-18T00:56:03;97682.38;;;20.91;84.02
49611;BME280;35515;48.766;9.176;2023-09-18T00:58:30;97678.78;;;20.95;82.81
49611;BME280;35515;48.766;9.176;2023-09-18T01:00:59;97677.94;;;20.95;83.38
49611;BME280;35515;48.766;9.176;2023-09-18T01:03:26;97667.41;;;21.02;82.26
49611;BME280;35515;48.766;9.176;2023-09-18T01:05:53;97671.16;;;21.11;81.55
49611;BME280;35515;48.766;9.176;2023-09-18T01:08:20;97666.81;;;21.05;82.81
49611;BME280;35515;48.766;9.176;2023-09-18T01:10:51;97661.19;;;20.91;82.49
49611;BME280;35515;48.766;9.176;2023-09-18T01:13:22;97663.38;;;20.94;81.83
49611;BME280;35515;48.766;9.176;2023-09-18T01:15:54;97667.97;;;20.99;80.77
49611;BME280;35515;48.766;9.176;2023-09-18T01:18:25;97658.59;;;21.00;80.35
49611;BME280;35515;48.766;9.176;2023-09-18T01:20:52;97659.66;;;21.04;80.88
49611;BME280;35515;48.766;9.176;2023-09-18T01:23:19;97676.66;;;21.11;80.68
49611;BME280;35515;48.766;9.176;2023-09-18T01:25:46;97661.75;;;21.12;81.61
49611;BME280;35515;48.766;9.176;2023-09-18T01:28:12;97663.34;;;21.18;80.69
49611;BME280;35515;48.766;9.176;2023-09-18T01:30:41;97656.28;;;21.31;78.42
49611;BME280;35515;48.766;9.176;2023-09-18T01:33:09;97670.44;;;21.44;76.89
49611;BME280;35515;48.766;9.176;2023-09-18T01:35:37;97665.69;;;21.49;75.79
49611;BME280;35515;48.766;9.176;2023-09-18T01:38:04;97668.41;;;21.54;75.07
49611;BME280;35515;48.766;9.176;2023-09-18T01:40:32;97667.72;;;21.63;74.13
49611;BME280;35515;48.766;9.176;2023-09-18T01:42:59;97666.53;;;21.69;73.49
49611;BME280;35515;48.766;9.176;2023-09-18T01:45:26;97686.34;;;21.71;73.33
49611;BME280;35515;48.766;9.176;2023-09-18T01:47:52;97739.75;;;21.75;73.21
49611;BME280;35515;48.766;9.176;2023-09-18T01:50:19;97746.94;;;21.95;71.97
49611;BME280;35515;48.766;9.176;2023-09-18T01:52:45;97738.72;;;22.09;71.41
49611;BME280;35515;48.766;9.176;2023-09-18T01:55:12;97733.41;;;22.32;69.23
49611;BME280;35515;48.766;9.176;2023-09-18T01:57:41;97723.19;;;22.32;68.45
49611;BME280;35515;48.766;9.176;2023-09-18T02:00:09;97712.84;;;22.24;69.19
49611;BME280;35515;48.766;9.176;2023-09-18T02:02:36;97697.13;;;22.25;68.83
49611;BME280;35515;48.766;9.176;2023-09-18T02:05:03;97696.44;;;22.33;70.58
49611;BME280;35515;48.766;9.176;2023-09-18T02:07:29;97644.09;;;22.28;75.08
49611;BME280;35515;48.766;9.176;2023-09-18T02:09:56;97633.66;;;22.25;74.72
49611;BME280;35515;48.766;9.176;2023-09-18T02:12:23;97607.78;;;22.20;75.01
49611;BME280;35515;48.766;9.176;2023-09-18T02:14:51;97572.00;;;22.01;76.92
49611;BME280;35515;48.766;9.176;2023-09-18T02:17:17;97587.69;;;21.87;83.55
49611;BME280;35515;48.766;9.176;2023-09-18T02:19:45;97593.06;;;21.59;88.15
49611;BME280;35515;48.766;9.176;2023-09-18T02:22:12;97619.91;;;21.53;88.58
49611;BME280;35515;48.766;9.176;2023-09-18T02:24:38;97615.66;;;21.42;90.78
49611;BME280;35515;48.766;9.176;2023-09-18T02:27:05;97611.16;;;21.46;91.01
49611;BME280;35515;48.766;9.176;2023-09-18T02:29:32;97614.59;;;21.38;92.03
49611;BME280;35515;48.766;9.176;2023-09-18T02:32:00;97603.97;;;21.31;92.19
49611;BME280;35515;48.766;9.176;2023-09-18T02:34:27;97610.88;;;21.29;92.29
49611;BME280;35515;48.766;9.176;2023-09-18T02:36:54;97613.09;;;21.27;94.28
49611;BME280;35515;48.766;9.176;2023-09-18T02:39:20;97616.38;;;21.29;92.93
49611;BME280;35515;48.766;9.176;2023-09-18T02:41:47;97629.91;;;21.06;94.36
49611;BME280;35515;48.766;9.176;2023-09-18T02:44:13;97642.84;;;21.05;95.56
49611;BME280;35515;48.766;9.176;2023-09-18T02:46:41;97646.50;;;21.01;95.62
49611;BME280;35515;48.766;9.176;2023-09-18T02:49:09;97650.66;;;20.98;96.18
49611;BME280;35515;48.766;9.176;2023-09-18T02:51:36;97655.84;;;21.00;94.41
49611;BME280;35515;48.766;9.176;2023-09-18T02:54:02;97641.66;;;21.12;86.41
49611;BME280;35515;48.766;9.176;2023-09-18T02:56:29;97638.31;;;21.15;86.65
49611;BME280;35515;48.766;9.176;2023-09-18T02:58:55;97633.66;;;21.15;87.42
49611;BME280;35515;48.766;9.176;2023-09-18T03:01:22;97632.50;;;21.16;86.59
49611;BME280;35515;48.766;9.176;2023-09-18T03:03:48;97633.72;;;21.29;82.00
49611;BME280;35515;48.766;9.176;2023-09-18T03:06:16;97639.00;;;21.26;83.68
49611;BME280;35515;48.766;9.176;2023-09-18T03:08:43;97633.34;;;21.36;80.96
49611;BME280;35515;48.766;9.176;2023-09-18T03:11:13;97633.34;;;21.36;81.65
49611;BME280;35515;48.766;9.176;2023-09-18T03:13:43;97636.03;;;21.41;81.59
49611;BME280;35515;48.766;9.176;2023-09-18T03:16:11;97628.88;;;21.40;80.77
49611;BME280;35515;48.766;9.176;2023-09-18T03:18:38;97615.19;;;21.35;79.79
49611;BME280;35515;48.766;9.176;2023-09-18T03:21:04;97651.84;;;21.54;76.99
49611;BME280;35515;48.766;9.176;2023-09-18T03:23:32;97658.22;;;21.31;79.47
49611;BME280;35515;48.766;9.176;2023-09-18T03:25:59;97648.09;;;21.26;81.23
49611;BME280;35515;48.766;9.176;2023-09-18T03:28:25;97653.91;;;21.25;80.80
49611;BME280;35515;48.766;9.176;2023-09-18T03:30:52;97663.41;;;21.13;83.75
49611;BME280;35515;48.766;9.176;2023-09-18T03:33:18;97662.88;;;21.11;85.53
49611;BME280;35515;48.766;9.176;2023-09-18T03:35:46;97664.75;;;21.16;84.07
49611;BME280;35515;48.766;9.176;2023-09-18T03:38:13;97662.59;;;21.13;85.00
49611;BME280;35515;48.766;9.176;2023-09-18T03:40:41;97654.38;;;21.08;86.05
49611;BME280;35515;48.766;9.176;2023-09-18T03:43:09;97667.41;;;21.02;87.19
49611;BME280;35515;48.766;9.176;2023-09-18T03:45:35;97690.94;;;20.89;88.64
49611;BME280;35515;48.766;9.176;2023-09-18T03:48:02;97721.41;;;20.98;88.23
49611;BME280;35515;48.766;9.176;2023-09-18T03:50:28;97742.38;;;20.94;89.99
49611;BME280;35515;48.766;9.176;2023-09-18T03:52:55;97753.09;;;20.95;90.55
49611;BME280;35515;48.766;9.176;2023-09-18T03:55:21;97768.78;;;20.95;90.64
49611;BME280;35515;48.766;9.176;2023-09-18T03:57:49;97777.06;;;20.95;88.31
49611;BME280;35515;48.766;9.176;2023-09-18T04:00:16;97773.19;;;20.96;87.48
49611;BME280;35515;48.766;9.176;2023-09-18T04:02:43;97771.84;;;20.93;87.95
49611;BME280;35515;48.766;9.176;2023-09-18T04:05:09;97767.63;;;21.01;84.60
49611;BME280;35515;48.766;9.176;2023-09-18T04:07:36;97767.09;;;20.99;85.16
49611;BME280;35515;48.766;9.176;2023-09-18T04:10:03;97763.81;;;20.97;88.21
49611;BME280;35515;48.766;9.176;2023-09-18T04:12:32;97747.31;;;20.97;86.87
49611;BME280;35515;48.766;9.176;2023-09-18T04:15:00;97760.53;;;20.95;86.19
49611;BME280;35515;48.766;9.176;2023-09-18T04:17:27;97748.47;;;20.91;88.52
49611;BME280;35515;48.766;9.176;2023-09-18T04:19:54;97736.91;;;20.88;87.41
49611;BME280;35515;48.766;9.176;2023-09-18T04:22:20;97731.66;;;20.92;87.34
49611;BME280;35515;48.766;9.176;2023-09-18T04:24:47;97717.06;;;20.92;85.44
49611;BME280;35515;48.766;9.176;2023-09-18T04:27:14;97720.13;;;20.90;86.23
49611;BME280;35515;48.766;9.176;2023-09-18T04:29:40;97712.44;;;20.87;87.44
49611;BME280;35515;48.766;9.176;2023-09-18T04:32:12;97701.38;;;20.92;85.79
49611;BME280;35515;48.766;9.176;2023-09-18T04:34:38;97685.09;;;20.96;84.86
49611;BME280;35515;48.766;9.176;2023-09-18T04:37:05;97666.94;;;20.95;84.97
49611;BME280;35515;48.766;9.176;2023-09-18T04:39:32;97641.53;;;20.98;84.56
49611;BME280;35515;48.766;9.176;2023-09-18T04:42:01;97639.94;;;20.97;82.96
49611;BME280;35515;48.766;9.176;2023-09-18T04:44:29;97652.81;;;21.01;83.40
49611;BME280;35515;48.766;9.176;2023-09-18T04:46:56;97638.16;;;21.06;84.64
49611;BME280;35515;48.766;9.176;2023-09-18T04:49:25;97631.63;;;21.02;85.61
49611;BME280;35515;48.766;9.176;2023-09-18T04:51:53;97627.50;;;20.99;82.96
49611;BME280;35515;48.766;9.176;2023-09-18T04:54:19;97637.63;;;21.04;85.47
49611;BME280;35515;48.766;9.176;2023-09-18T04:56:46;97655.56;;;21.01;85.87
49611;BME280;35515;48.766;9.176;2023-09-18T04:59:12;97651.94;;;21.06;85.32
49611;BME280;35515;48.766;9.176;2023-09-18T05:01:39;97665.41;;;21.08;86.00
49611;BME280;35515;48.766;9.176;2023-09-18T05:04:06;97669.06;;;20.98;86.86
49611;BME280;35515;48.766;9.176;2023-09-18T05:06:34;97669.06;;;20.98;87.17
49611;BME280;35515;48.766;9.176;2023-09-18T05:09:01;97663.66;;;20.93;87.93
49611;BME280;35515;48.766;9.176;2023-09-18T05:11:28;97652.72;;;20.87;89.64
49611;BME280;35515;48.766;9.176;2023-09-18T05:13:55;97647.50;;;20.86;89.96
49611;BME280;35515;48.766;9.176;2023-09-18T05:16:22;97648.91;;;20.83;90.94
49611;BME280;35515;48.766;9.176;2023-09-18T05:18:48;97658.31;;;20.77;91.67
49611;BME280;35515;48.766;9.176;2023-09-18T05:21:15;97665.97;;;20.80;91.45
49611;BME280;35515;48.766;9.176;2023-09-18T05:23:44;97675.38;;;20.79;91.60
49611;BME280;35515;48.766;9.176;2023-09-18T05:26:10;97705.00;;;20.87;87.91
49611;BME280;35515;48.766;9.176;2023-09-18T05:28:37;97701.38;;;20.92;87.25
49611;BME280;35515;48.766;9.176;2023-09-18T05:31:03;97686.75;;;20.97;85.12
49611;BME280;35515;48.766;9.176;2023-09-18T05:33:30;97674.13;;;20.91;84.56
49611;BME280;35515;48.766;9.176;2023-09-18T05:35:56;97665.53;;;20.97;85.34
49611;BME280;35515;48.766;9.176;2023-09-18T05:38:23;97661.06;;;21.01;84.25
49611;BME280;35515;48.766;9.176;2023-09-18T05:40:51;97678.63;;;21.05;84.21
49611;BME280;35515;48.766;9.176;2023-09-18T05:43:17;97681.78;;;20.94;85.31
49611;BME280;35515;48.766;9.176;2023-09-18T05:45:44;97682.03;;;20.97;85.66
49611;BME280;35515;48.766;9.176;2023-09-18T05:48:11;97687.78;;;21.01;85.31
49611;BME280;35515;48.766;9.176;2023-09-18T05:50:38;97688.59;;;21.01;84.72
49611;BME280;35515;48.766;9.176;2023-09-18T05:53:06;97694.28;;;21.10;84.33
49611;BME280;35515;48.766;9.176;2023-09-18T05:55:33;97686.69;;;21.02;84.87
49611;BME280;35515;48.766;9.176;2023-09-18T05:58:02;97689.19;;;20.98;84.24
49611;BME280;35515;48.766;9.176;2023-09-18T06:00:29;97681.44;;;21.00;84.75
49611;BME280;35515;48.766;9.176;2023-09-18T06:02:56;97673.03;;;20.92;85.34
49611;BME280;35515;48.766;9.176;2023-09-18T06:05:24;97669.97;;;20.93;84.46
49611;BME280;35515;48.766;9.176;2023-09-18T06:07:50;97669.63;;;21.00;84.03
49611;BME280;35515;48.766;9.176;2023-09-18T06:10:18;97655.84;;;21.00;83.72
49611;BME280;35515;48.766;9.176;2023-09-18T06:12:45;97649.81;;;20.98;83.84
49611;BME280;35515;48.766;9.176;2023-09-18T06:15:13;97645.09;;;21.03;83.87
49611;BME280;35515;48.766;9.176;2023-09-18T06:17:40;97643.78;;;20.96;84.47
49611;BME280;35515;48.766;9.176;2023-09-18T06:20:08;97646.06;;;20.88;84.11
49611;BME280;35515;48.766;9.176;2023-09-18T06:22:36;97656.63;;;20.81;85.18
49611;BME280;35515;48.766;9.176;2023-09-18T06:25:04;97671.47;;;20.80;86.42
49611;BME280;35515;48.766;9.176;2023-09-18T06:27:31;97679.22;;;20.78;87.21
49611;BME280;35515;48.766;9.176;2023-09-18T06:29:59;97669.38;;;20.72;89.90
49611;BME280;35515;48.766;9.176;2023-09-18T06:32:27;97675.06;;;20.81;91.17
49611;BME280;35515;48.766;9.176;2023-09-18T06:34:53;97677.47;;;20.87;90.38
49611;BME280;35515;48.766;9.176;2023-09-18T06:37:20;97678.69;;;20.76;91.23
49611;BME280;35515;48.766;9.176;2023-09-18T06:39:46;97664.47;;;20.69;92.85
49611;BME280;35515;48.766;9.176;2023-09-18T06:42:14;97678.59;;;20.57;94.09
49611;BME280;35515;48.766;9.176;2023-09-18T06:44:40;97699.44;;;20.63;93.97
49611;BME280;35515;48.766;9.176;2023-09-18T06:47:07;97695.41;;;20.55;96.33
49611;BME280;35515;48.766;9.176;2023-09-18T06:49:35;97694.22;;;20.62;94.85
49611;BME280;35515;48.766;9.176;2023-09-18T06:52:02;97700.25;;;20.64;94.12
49611;BME280;35515;48.766;9.176;2023-09-18T06:54:29;97704.72;;;20.60;95.74
49611;BME280;35515;48.766;9.176;2023-09-18T06:56:56;97702.25;;;20.58;95.72
49611;BME280;35515;48.766;9.176;2023-09-18T06:59:22;97694.28;;;20.57;96.37
49611;BME280;35515;48.766;9.176;2023-09-18T07:01:49;97698.66;;;20.58;95.41
49611;BME280;35515;48.766;9.176;2023-09-18T07:04:15;97706.97;;;20.52;95.18
49611;BME280;35515;48.766;9.176;2023-09-18T07:06:43;97711.09;;;20.50;94.39
49611;BME280;35515;48.766;9.176;2023-09-18T07:09:11;97706.44;;;20.50;94.22
49611;BME280;35515;48.766;9.176;2023-09-18T07:11:39;97700.34;;;20.53;93.66
49611;BME280;35515;48.766;9.176;2023-09-18T07:14:05;97706.81;;;20.73;92.64
49611;BME280;35515;48.766;9.176;2023-09-18T07:16:33;97700.50;;;20.67;93.01
49611;BME280;35515;48.766;9.176;2023-09-18T07:19:00;97688.66;;;20.67;92.41
49611;BME280;35515;48.766;9.176;2023-09-18T07:21:27;97680.97;;;20.69;92.81
49611;BME280;35515;48.766;9.176;2023-09-18T07:23:55;97682.34;;;20.66;91.47
49611;BME280;35515;48.766;9.176;2023-09-18T07:26:22;97687.09;;;20.90;90.33
49611;BME280;35515;48.766;9.176;2023-09-18T07:28:48;97691.75;;;20.90;87.94
49611;BME280;35515;48.766;9.176;2023-09-18T07:31:15;97685.25;;;20.80;88.05
49611;BME280;35515;48.766;9.176;2023-09-18T07:33:41;97695.75;;;20.78;88.86
49611;BME280;35515;48.766;9.176;2023-09-18T07:36:08;97693.28;;;21.01;84.69
49611;BME280;35515;48.766;9.176;2023-09-18T07:38:35;97699.16;;;20.94;84.28
49611;BME280;35515;48.766;9.176;2023-09-18T07:41:03;97718.13;;;20.96;82.47
49611;BME280;35515;48.766;9.176;2023-09-18T07:43:29;97727.84;;;20.88;84.25
49611;BME280;35515;48.766;9.176;2023-09-18T07:45:56;97732.31;;;21.08;82.33
49611;BME280;35515;48.766;9.176;2023-09-18T07:48:25;97743.41;;;20.98;83.13
49611;BME280;35515;48.766;9.176;2023-09-18T07:50:51;97750.81;;;21.27;81.01
49611;BME280;35515;48.766;9.176;2023-09-18T07:53:19;97756.56;;;21.30;80.54
49611;BME280;35515;48.766;9.176;2023-09-18T07:55:47;97749.38;;;21.10;80.88
49611;BME280;35515;48.766;9.176;2023-09-18T07:58:15;97741.50;;;21.23;79.56
49611;BME280;35515;48.766;9.176;2023-09-18T08:00:42;97735.75;;;21.19;80.47
49611;BME280;35515;48.766;9.176;2023-09-18T08:03:09;97747.66;;;21.14;79.99
49611;BME280;35515;48.766;9.176;2023-09-18T08:05:35;97746.81;;;21.14;80.43
49611;BME280;35515;48.766;9.176;2023-09-18T08:08:02;97745.91;;;21.24;79.92
49611;BME280;35515;48.766;9.176;2023-09-18T08:10:30;97766.59;;;21.21;78.93
49611;BME280;35515;48.766;9.176;2023-09-18T08:12:57;97775.81;;;21.11;79.52
49611;BME280;35515;48.766;9.176;2023-09-18T08:15:25;97778.66;;;21.01;81.67
49611;BME280;35515;48.766;9.176;2023-09-18T08:17:52;97780.22;;;21.07;81.29
49611;BME280;35515;48.766;9.176;2023-09-18T08:20:19;97784.66;;;21.03;80.87
49611;BME280;35515;48.766;9.176;2023-09-18T08:22:45;97808.09;;;21.00;81.47
49611;BME280;35515;48.766;9.176;2023-09-18T08:25:13;97816.94;;;20.97;80.92
49611;BME280;35515;48.766;9.176;2023-09-18T08:27:40;97817.16;;;21.06;80.76
49611;BME280;35515;48.766;9.176;2023-09-18T08:30:09;97833.94;;;21.04;80.64
49611;BME280;35515;48.766;9.176;2023-09-18T08:32:38;97834.34;;;20.93;80.04
49611;BME280;35515;48.766;9.176;2023-09-18T08:35:05;97822.44;;;20.97;81.05
49611;BME280;35515;48.766;9.176;2023-09-18T08:37:32;97819.13;;;21.00;83.34
49611;BME280;35515;48.766;9.176;2023-09-18T08:39:58;97825.28;;;20.87;83.84
49611;BME280;35515;48.766;9.176;2023-09-18T08:42:27;97825.53;;;20.91;85.55
49611;BME280;35515;48.766;9.176;2023-09-18T08:44:58;97838.59;;;20.80;85.48
49611;BME280;35515;48.766;9.176;2023-09-18T08:47:26;97830.63;;;20.78;87.20
49611;BME280;35515;48.766;9.176;2023-09-18T08:49:55;97838.50;;;20.90;84.69
49611;BME280;35515;48.766;9.176;2023-09-18T08:52:24;97845.41;;;20.87;85.37
49611;BME280;35515;48.766;9.176;2023-09-18T08:54:51;97835.09;;;20.69;87.15
49611;BME280;35515;48.766;9.176;2023-09-18T08:57:18;97845.66;;;20.51;89.25
49611;BME280;35515;48.766;9.176;2023-09-18T08:59:46;97831.28;;;20.60;89.89
49611;BME280;35515;48.766;9.176;2023-09-18T09:02:14;97841.19;;;20.61;90.10
49611;BME280;35515;48.766;9.176;2023-09-18T09:04:40;97848.97;;;20.48;89.84
49611;BME280;35515;48.766;9.176;2023-09-18T09:07:08;97849.56;;;20.40;91.47
49611;BME280;35515;48.766;9.176;2023-09-18T09:09:35;97849.50;;;20.50;89.53
49611;BME280;35515;48.766;9.176;2023-09-18T09:12:03;97866.41;;;20.33;90.68
49611;BME280;35515;48.766;9.176;2023-09-18T09:14:29;97863.25;;;20.55;90.72
49611;BME280;35515;48.766;9.176;2023-09-18T09:16:56;97862.75;;;20.43;90.64
49611;BME280;35515;48.766;9.176;2023-09-18T09:19:31;97868.38;;;20.28;93.89
49611;BME280;35515;48.766;9.176;2023-09-18T09:21:57;97863.69;;;20.23;96.92
49611;BME280;35515;48.766;9.176;2023-09-18T09:24:41;97864.03;;;20.11;98.37
49611;BME280;35515;48.766;9.176;2023-09-18T09:27:08;97847.50;;;20.21;99.24
49611;BME280;35515;48.766;9.176;2023-09-18T09:29:35;97838.72;;;20.19;98.42
49611;BME280;35515;48.766;9.176;2023-09-18T09:32:15;97830.97;;;20.21;98.04
49611;BME280;35515;48.766;9.176;2023-09-18T09:34:43;97849.09;;;20.33;98.41
49611;BME280;35515;48.766;9.176;2023-09-18T09:37:10;97853.59;;;20.08;100.00
49611;BME280;35515;48.766;9.176;2023-09-18T09:39:48;97853.31;;;20.15;100.00
49611;BME280;35515;48.766;9.176;2023-09-18T09:42:16;97835.22;;;20.03;99.93
49611;BME280;35515;48.766;9.176;2023-09-18T09:44:47;97833.88;;;20.01;100.00
49611;BME280;35515;48.766;9.176;2023-09-18T09:47:14;97826.16;;;19.98;99.67
49611;BME280;35515;48.766;9.176;2023-09-18T09:49:45;97828.91;;;20.03;100.00
49611;BME280;35515;48.766;9.176;2023-09-18T09:52:17;97839.06;;;20.02;100.00
49611;BME280;35515;48.766;9.176;2023-09-18T09:54:48;97815.72;;;20.00;100.00
49611;BME280;35515;48.766;9.176;2023-09-18T09:57:14;97836.06;;;19.99;100.00
49611;BME280;35515;48.766;9.176;2023-09-18T09:59:41;97846.44;;;20.12;100.00
49611;BME280;35515;48.766;9.176;2023-09-18T10:02:10;97829.47;;;20.00;100.00
49611;BME280;35515;48.766;9.176;2023-09-18T10:04:40;97847.50;;;20.21;100.00
49611;BME280;35515;48.766;9.176;2023-09-18T10:07:09;97850.84;;;20.13;100.00
49611;BME280;35515;48.766;9.176;2023-09-18T10:09:41;97861.56;;;20.15;100.00
49611;BME280;35515;48.766;9.176;2023-09-18T10:12:10;97859.06;;;20.18;100.00
49611;BME280;35515;48.766;9.176;2023-09-18T10:14:37;97865.06;;;20.26;100.00
49611;BME280;35515;48.766;9.176;2023-09-18T10:17:11;97855.72;;;20.27;100.00
49611;BME280;35515;48.766;9.176;2023-09-18T10:19:45;97848.38;;;20.12;100.00
49611;BME280;35515;48.766;9.176;2023-09-18T10:22:22;97873.38;;;20.15;100.00
49611;BME280;35515;48.766;9.176;2023-09-18T10:24:54;97914.38;;;20.12;100.00
49611;BME280;35515;48.766;9.176;2023-09-18T10:27:27;97912.97;;;20.14;100.00
49611;BME280;35515;48.766;9.176;2023-09-18T10:29:54;97919.25;;;20.25;100.00
49611;BME280;35515;48.766;9.176;2023-09-18T10:32:22;97911.28;;;20.24;100.00
49611;BME280;35515;48.766;9.176;2023-09-18T10:34:49;97917.03;;;20.27;100.00
49611;BME280;35515;48.766;9.176;2023-09-18T10:37:17;97917.59;;;20.24;100.00
49611;BME280;35515;48.766;9.176;2023-09-18T10:39:45;97911.22;;;20.34;100.00
49611;BME280;35515;48.766;9.176;2023-09-18T10:42:16;97916.78;;;20.24;100.00
49611;BME280;35515;48.766;9.176;2023-09-18T10:44:44;97908.38;;;20.49;100.00
49611;BME280;35515;48.766;9.176;2023-09-18T10:47:11;97914.38;;;20.12;100.00
49611;BME280;35515;48.766;9.176;2023-09-18T10:49:39;97892.97;;;20.03;100.00
49611;BME280;35515;48.766;9.176;2023-09-18T10:52:11;97888.28;;;19.99;100.00
49611;BME280;35515;48.766;9.176;2023-09-18T10:54:37;97891.59;;;20.01;100.00
49611;BME280;35515;48.766;9.176;2023-09-18T10:57:04;97872.81;;;20.18;100.00
49611;BME280;35515;48.766;9.176;2023-09-18T10:59:31;97872.28;;;20.11;100.00
49611;BME280;35515;48.766;9.176;2023-09-18T11:02:03;97861.91;;;19.98;100.00
49611;BME280;35515;48.766;9.176;2023-09-18T11:04:31;97861.94;;;19.93;100.00
49611;BME280;35515;48.766;9.176;2023-09-18T11:07:01;97853.41;;;19.99;100.00
49611;BME280;35515;48.766;9.176;2023-09-18T11:09:29;97847.03;;;20.04;100.00
49611;BME280;35515;48.766;9.176;2023-09-18T11:12:02;97847.03;;;20.04;100.00
49611;BME280;35515;48.766;9.176;2023-09-18T11:14:41;97847.50;;;20.16;100.00
49611;BME280;35515;48.766;9.176;2023-09-18T11:17:34;97868.69;;;20.16;100.00
49611;BME280;35515;48.766;9.176;2023-09-18T11:20:06;97858.59;;;20.01;100.00
49611;BME280;35515;48.766;9.176;2023-09-18T11:22:35;97874.50;;;20.14;100.00
49611;BME280;35515;48.766;9.176;2023-09-18T11:25:37;97888.25;;;20.14;100.00
49611;BME280;35515;48.766;9.176;2023-09-18T11:28:04;97875.03;;;20.11;100.00
49611;BME280;35515;48.766;9.176;2023-09-18T11:30:33;97863.19;;;20.21;100.00
49611;BME280;35515;48.766;9.176;2023-09-18T11:33:03;97811.56;;;20.08;100.00
49611;BME280;35515;48.766;9.176;2023-09-18T11:35:31;97837.09;;;20.13;98.71
49611;BME280;35515;48.766;9.176;2023-09-18T11:38:06;97852.47;;;20.19;93.98
49611;BME280;35515;48.766;9.176;2023-09-18T11:40:34;97872.03;;;20.13;97.46
49611;BME280;35515;48.766;9.176;2023-09-18T11:43:23;97887.94;;;20.21;96.49
49611;BME280;35515;48.766;9.176;2023-09-18T11:45:51;97894.84;;;20.13;97.18
49611;BME280;35515;48.766;9.176;2023-09-18T11:48:19;97894.78;;;20.24;95.86
49611;BME280;35515;48.766;9.176;2023-09-18T11:50:47;97868.47;;;20.07;96.65
49611;BME280;35515;48.766;9.176;2023-09-18T11:53:16;97875.00;;;20.21;97.09
49611;BME280;35515;48.766;9.176;2023-09-18T11:55:44;97890.41;;;20.17;98.52
49611;BME280;35515;48.766;9.176;2023-09-18T11:58:11;97879.19;;;20.09;98.49
49611;BME280;35515;48.766;9.176;2023-09-18T12:00:38;97877.72;;;20.27;98.33
49611;BME280;35515;48.766;9.176;2023-09-18T12:03:19;97889.34;;;20.13;98.44
49611;BME280;35515;48.766;9.176;2023-09-18T12:05:55;97882.72;;;20.19;99.10
49611;BME280;35515;48.766;9.176;2023-09-18T12:08:23;97898.59;;;20.33;99.55
49611;BME280;35515;48.766;9.176;2023-09-18T12:10:51;97902.75;;;20.25;99.29
49611;BME280;35515;48.766;9.176;2023-09-18T12:13:18;97905.19;;;20.32;97.81
49611;BME280;35515;48.766;9.176;2023-09-18T12:15:46;97895.59;;;20.24;98.89
49611;BME280;35515;48.766;9.176;2023-09-18T12:18:14;97864.00;;;20.21;100.00
49611;BME280;35515;48.766;9.176;2023-09-18T12:20:48;97853.81;;;20.22;100.00
49611;BME280;35515;48.766;9.176;2023-09-18T12:23:15;97865.91;;;20.26;99.99
49611;BME280;35515;48.766;9.176;2023-09-18T12:25:45;97867.22;;;20.34;99.06
49611;BME280;35515;48.766;9.176;2023-09-18T12:28:13;97863.44;;;20.25;98.99
49611;BME280;35515;48.766;9.176;2023-09-18T12:30:41;97855.72;;;20.21;99.39
49611;BME280;35515;48.766;9.176;2023-09-18T12:33:07;97847.50;;;20.21;99.66
49611;BME280;35515;48.766;9.176;2023-09-18T12:35:34;97848.25;;;20.32;98.30
49611;BME280;35515;48.766;9.176;2023-09-18T12:38:13;97852.13;;;20.31;98.09
49611;BME280;35515;48.766;9.176;2023-09-18T12:40:40;97855.69;;;20.32;98.71
49611;BME280;35515;48.766;9.176;2023-09-18T12:43:09;97850.69;;;20.34;98.41
49611;BME280;35515;48.766;9.176;2023-09-18T12:45:36;97848.38;;;20.57;95.28
49611;BME280;35515;48.766;9.176;2023-09-18T12:48:03;97853.66;;;20.48;96.55
49611;BME280;35515;48.766;9.176;2023-09-18T12:50:31;97868.75;;;20.55;98.53
49611;BME280;35515;48.766;9.176;2023-09-18T12:53:09;97869.78;;;20.65;97.38
49611;BME280;35515;48.766;9.176;2023-09-18T12:55:36;97863.13;;;20.71;95.33
49611;BME280;35515;48.766;9.176;2023-09-18T12:58:03;97859.28;;;20.72;95.98
49611;BME280;35515;48.766;9.176;2023-09-18T13:00:33;97862.72;;;20.88;92.27
49611;BME280;35515;48.766;9.176;2023-09-18T13:03:01;97856.47;;;20.82;94.03